Time;durP1;ratioP1;P1;durP2;ratioP2;P2;SDS_P1;SDS_P2;PMS_P1;PMS_P2;Temp;Humidity;BMP_temperature;BMP_pressure;BME280_temperature;BME280_humidity;BME280_pressure;Samples;Min_cycle;Max_cycle;Signal;HPM_P1;HPM_P2
2023/09/21 00:00:56;;;;;;;2.60;2.00;;;17.60;99.90;;;;;;4892747;29;20191;-73
2023/09/21 00:03:22;;;;;;;5.57;3.00;;;17.60;99.90;;;;;;4890791;29;20216;-71
2023/09/21 00:05:51;;;;;;;2.70;2.13;;;17.70;99.90;;;;;;4876349;29;20462;-72
2023/09/21 00:08:17;;;;;;;2.93;1.90;;;17.60;99.90;;;;;;4893625;29;20223;-72
2023/09/21 00:10:42;;;;;;;3.10;1.97;;;17.60;99.90;;;;;;4893565;29;20520;-72
2023/09/21 00:13:08;;;;;;;3.30;2.10;;;17.60;99.90;;;;;;4910190;29;20217;-72
2023/09/21 00:15:35;;;;;;;4.97;2.57;;;17.60;99.90;;;;;;4912640;29;20270;-74
2023/09/21 00:18:01;;;;;;;4.20;2.70;;;17.60;99.90;;;;;;4898816;29;20238;-73
2023/09/21 00:20:36;;;;;;;4.37;2.33;;;17.60;99.90;;;;;;4890894;29;20436;-72
2023/09/21 00:23:06;;;;;;;3.20;2.10;;;17.60;99.90;;;;;;4891612;29;20447;-72
2023/09/21 00:25:32;;;;;;;5.00;2.07;;;17.60;99.90;;;;;;4876653;29;20543;-72
2023/09/21 00:27:58;;;;;;;2.57;1.77;;;17.60;99.90;;;;;;4892545;29;20497;-72
2023/09/21 00:30:25;;;;;;;2.40;1.53;;;17.60;99.90;;;;;;4891758;29;20720;-74
2023/09/21 00:32:50;;;;;;;5.43;2.27;;;17.50;99.90;;;;;;4893440;29;20439;-73
2023/09/21 00:35:18;;;;;;;3.53;1.97;;;17.50;99.90;;;;;;4881217;29;20172;-73
2023/09/21 00:37:46;;;;;;;3.30;2.00;;;17.50;99.90;;;;;;4877390;29;20479;-72
2023/09/21 00:40:19;;;;;;;5.00;1.97;;;17.50;99.90;;;;;;4877183;29;20467;-72
2023/09/21 00:42:45;;;;;;;3.17;2.50;;;17.50;99.90;;;;;;4904333;29;20522;-71
2023/09/21 00:45:12;;;;;;;3.33;2.40;;;17.50;99.90;;;;;;4894145;29;20436;-72
2023/09/21 00:47:52;;;;;;;2.50;2.13;;;17.50;99.90;;;;;;4891841;29;20459;-72
2023/09/21 00:50:21;;;;;;;4.40;2.00;;;17.50;99.90;;;;;;4894789;29;20420;-73
2023/09/21 00:52:51;;;;;;;3.60;2.20;;;17.50;99.90;;;;;;4894465;29;20450;-72
2023/09/21 00:55:23;;;;;;;2.67;1.73;;;17.50;99.90;;;;;;4894992;29;20424;-71
2023/09/21 00:57:55;;;;;;;2.50;1.93;;;17.50;99.90;;;;;;4893710;29;20459;-73
2023/09/21 01:00:25;;;;;;;2.40;1.90;;;17.50;99.90;;;;;;4895225;29;20412;-73
2023/09/21 01:02:53;;;;;;;3.17;2.00;;;17.50;99.90;;;;;;4908496;29;20823;-72
2023/09/21 01:05:21;;;;;;;3.30;2.27;;;17.40;99.90;;;;;;4910498;29;20446;-72
2023/09/21 01:07:50;;;;;;;3.60;2.23;;;17.40;99.90;;;;;;4894991;29;20540;-73
2023/09/21 01:10:19;;;;;;;2.63;1.70;;;17.40;99.90;;;;;;4894422;29;20431;-72
2023/09/21 01:12:49;;;;;;;2.90;2.30;;;17.40;99.90;;;;;;4892136;29;20845;-72
2023/09/21 01:15:16;;;;;;;3.43;2.47;;;17.40;99.90;;;;;;4894250;29;20596;-72
2023/09/21 01:17:42;;;;;;;3.67;2.40;;;17.40;99.90;;;;;;4879448;29;20432;-71
2023/09/21 01:20:18;;;;;;;3.83;2.27;;;17.40;99.90;;;;;;4891992;29;20739;-72
2023/09/21 01:22:49;;;;;;;3.93;2.07;;;17.40;99.90;;;;;;4884848;29;20203;-72
2023/09/21 01:25:15;;;;;;;3.60;2.10;;;17.40;99.90;;;;;;4906834;29;20431;-72
2023/09/21 01:27:41;;;;;;;2.70;1.90;;;17.40;99.90;;;;;;4899726;29;20772;-71
2023/09/21 01:30:11;;;;;;;4.07;2.10;;;17.40;99.90;;;;;;4888954;29;20438;-72
2023/09/21 01:32:39;;;;;;;2.63;2.00;;;17.30;99.90;;;;;;4888350;29;20427;-72
2023/09/21 01:35:06;;;;;;;1.93;1.70;;;17.30;99.90;;;;;;4889915;29;20887;-72
2023/09/21 01:37:32;;;;;;;2.40;2.00;;;17.20;99.90;;;;;;4890523;29;20503;-73
2023/09/21 01:40:00;;;;;;;2.50;2.20;;;17.20;99.90;;;;;;4890989;29;20709;-72
2023/09/21 01:42:26;;;;;;;5.33;2.50;;;17.20;99.90;;;;;;4892376;29;20463;-72
2023/09/21 01:44:51;;;;;;;2.60;1.97;;;17.20;99.90;;;;;;4889847;29;20584;-73
2023/09/21 01:47:18;;;;;;;2.70;1.97;;;17.20;99.90;;;;;;4889178;29;20207;-72
2023/09/21 01:49:44;;;;;;;2.80;2.23;;;17.20;99.90;;;;;;4888830;29;20191;-72
2023/09/21 01:52:10;;;;;;;3.63;2.20;;;17.20;99.90;;;;;;4887798;29;20477;-71
2023/09/21 01:54:36;;;;;;;3.00;2.10;;;17.10;99.90;;;;;;4872437;29;20440;-71
2023/09/21 01:57:06;;;;;;;3.40;1.97;;;17.10;99.90;;;;;;4889629;29;20441;-72
2023/09/21 01:59:33;;;;;;;4.17;2.00;;;17.10;99.90;;;;;;4872142;29;20201;-72
2023/09/21 02:01:58;;;;;;;3.13;1.83;;;17.10;99.90;;;;;;4887373;29;20515;-72
2023/09/21 02:04:27;;;;;;;3.53;1.67;;;17.00;99.90;;;;;;4889529;29;20443;-72
2023/09/21 02:06:53;;;;;;;2.60;1.93;;;17.10;99.90;;;;;;4888690;29;20287;-73
2023/09/21 02:09:19;;;;;;;3.10;2.13;;;17.00;99.90;;;;;;4873550;29;20462;-71
2023/09/21 02:11:46;;;;;;;2.97;1.90;;;17.00;99.90;;;;;;4879052;29;20430;-72
2023/09/21 02:14:12;;;;;;;5.40;2.60;;;17.00;99.90;;;;;;4889362;29;20212;-72
2023/09/21 02:16:38;;;;;;;2.60;1.67;;;16.90;99.90;;;;;;4889361;29;20411;-72
2023/09/21 02:19:03;;;;;;;3.83;1.80;;;16.90;99.90;;;;;;4891206;29;20188;-73
2023/09/21 02:21:29;;;;;;;2.70;2.20;;;16.90;99.90;;;;;;4890405;29;20445;-71
2023/09/21 02:23:55;;;;;;;2.70;1.40;;;16.90;99.90;;;;;;4889046;29;20206;-72
2023/09/21 02:26:21;;;;;;;3.33;2.60;;;16.90;99.90;;;;;;4890407;29;20202;-72
2023/09/21 02:28:48;;;;;;;2.80;2.10;;;17.00;99.90;;;;;;4890597;29;20475;-72
2023/09/21 02:31:15;;;;;;;2.87;1.90;;;17.00;99.90;;;;;;4891423;29;20180;-70
2023/09/21 02:33:42;;;;;;;2.10;1.70;;;16.90;99.90;;;;;;4888540;29;20954;-72
2023/09/21 02:36:19;;;;;;;2.57;1.87;;;16.90;99.90;;;;;;4872809;29;20511;-72
2023/09/21 02:38:48;;;;;;;2.30;1.50;;;16.80;99.90;;;;;;4888985;29;20463;-73
2023/09/21 02:41:14;;;;;;;2.40;1.80;;;16.80;99.90;;;;;;4872774;29;20439;-73
2023/09/21 02:43:40;;;;;;;2.33;2.10;;;16.80;99.90;;;;;;4889891;29;20458;-72
2023/09/21 02:46:06;;;;;;;2.60;2.03;;;16.70;99.90;;;;;;4903926;29;20278;-71
2023/09/21 02:48:31;;;;;;;2.27;1.90;;;16.70;99.90;;;;;;4889054;29;20522;-73
2023/09/21 02:50:58;;;;;;;2.70;1.60;;;16.70;99.90;;;;;;4888944;29;20181;-70
2023/09/21 02:53:24;;;;;;;2.70;1.80;;;16.70;99.90;;;;;;4891135;29;20255;-71
2023/09/21 02:55:52;;;;;;;3.90;2.43;;;16.70;99.90;;;;;;4873352;29;20435;-71
2023/09/21 02:58:20;;;;;;;2.93;2.13;;;16.70;99.90;;;;;;4891810;29;20182;-72
2023/09/21 03:00:49;;;;;;;2.63;2.03;;;16.70;99.90;;;;;;4878280;29;20858;-72
2023/09/21 03:03:17;;;;;;;3.27;1.63;;;16.70;99.90;;;;;;4891425;29;20442;-73
2023/09/21 03:05:47;;;;;;;2.33;2.00;;;16.60;99.90;;;;;;4894897;29;20768;-73
2023/09/21 03:08:13;;;;;;;3.27;2.30;;;16.60;99.90;;;;;;4908024;29;20741;-72
2023/09/21 03:10:44;;;;;;;2.70;1.80;;;16.70;99.90;;;;;;4893352;29;20433;-72
2023/09/21 03:13:16;;;;;;;3.47;2.03;;;16.70;99.90;;;;;;4893052;29;20463;-72
2023/09/21 03:15:47;;;;;;;2.93;1.77;;;16.70;99.90;;;;;;4892578;29;20430;-72
2023/09/21 03:18:14;;;;;;;2.57;1.80;;;16.70;99.90;;;;;;4889229;29;20450;-71
2023/09/21 03:20:40;;;;;;;2.80;1.73;;;16.70;99.90;;;;;;4889676;29;20434;-72
2023/09/21 03:23:10;;;;;;;3.13;1.77;;;16.70;99.90;;;;;;4890374;29;20497;-72
2023/09/21 03:25:41;;;;;;;2.47;2.20;;;16.70;99.90;;;;;;4891288;29;20426;-74
2023/09/21 03:28:13;;;;;;;2.23;1.70;;;16.70;99.90;;;;;;4885053;29;20474;-74
2023/09/21 03:30:46;;;;;;;2.50;1.80;;;16.60;99.90;;;;;;4890711;29;20416;-72
2023/09/21 03:33:15;;;;;;;2.80;1.70;;;16.60;99.90;;;;;;4891439;29;20490;-72
2023/09/21 03:35:41;;;;;;;3.10;2.20;;;16.60;99.90;;;;;;4892179;29;20477;-73
2023/09/21 03:38:14;;;;;;;4.17;1.93;;;16.60;99.90;;;;;;4891494;29;20461;-72
2023/09/21 03:40:42;;;;;;;3.33;1.77;;;16.60;99.90;;;;;;4889842;29;20207;-71
2023/09/21 03:43:12;;;;;;;3.20;2.27;;;16.60;99.90;;;;;;4903876;29;20450;-73
2023/09/21 03:45:39;;;;;;;5.23;1.97;;;16.60;99.90;;;;;;4890010;29;20412;-72
2023/09/21 03:48:06;;;;;;;3.37;2.03;;;16.60;99.90;;;;;;4892600;29;20480;-72
2023/09/21 03:50:32;;;;;;;8.47;2.17;;;16.50;99.90;;;;;;4870209;29;20439;-73
2023/09/21 03:52:59;;;;;;;3.20;2.03;;;16.50;99.90;;;;;;4899241;29;20457;-72
2023/09/21 03:55:25;;;;;;;4.40;2.47;;;16.50;99.90;;;;;;4874146;29;20260;-72
2023/09/21 03:57:51;;;;;;;2.40;1.80;;;16.50;99.90;;;;;;4893897;29;20882;-72
2023/09/21 04:03:00;;;;;;;2.37;1.67;;;16.60;99.90;;;;;;4888468;29;20479;-73
2023/09/21 04:05:39;;;;;;;1.87;1.50;;;16.60;99.90;;;;;;4889177;29;20771;-72
2023/09/21 04:08:06;;;;;;;2.83;1.97;;;16.60;99.90;;;;;;4888957;29;20756;-72
2023/09/21 04:10:32;;;;;;;3.30;1.73;;;16.60;99.90;;;;;;4904740;29;20567;-72
2023/09/21 04:12:58;;;;;;;2.67;1.80;;;16.60;99.90;;;;;;4889487;29;20440;-72
2023/09/21 04:15:28;;;;;;;2.70;1.60;;;16.60;99.90;;;;;;4890330;29;20621;-73
2023/09/21 04:17:55;;;;;;;2.20;1.73;;;16.60;99.90;;;;;;4907475;29;20429;-73
2023/09/21 04:20:22;;;;;;;3.63;2.03;;;16.70;99.90;;;;;;4891651;29;20505;-72
2023/09/21 04:22:50;;;;;;;2.23;1.90;;;16.70;99.90;;;;;;4891330;29;20473;-72
2023/09/21 04:25:17;;;;;;;3.57;2.13;;;16.70;99.90;;;;;;4890470;29;20521;-73
2023/09/21 04:27:48;;;;;;;2.90;1.90;;;16.70;99.90;;;;;;4892495;29;20462;-74
2023/09/21 04:30:16;;;;;;;2.27;2.07;;;16.70;99.90;;;;;;4876186;29;20418;-74
2023/09/21 04:32:46;;;;;;;6.17;2.63;;;16.70;99.90;;;;;;4877501;29;20442;-72
2023/09/21 04:35:13;;;;;;;3.00;2.40;;;16.70;99.90;;;;;;4910048;29;20429;-72
2023/09/21 04:37:39;;;;;;;2.17;1.70;;;16.70;99.90;;;;;;4893369;29;20473;-72
2023/09/21 04:40:10;;;;;;;2.97;1.90;;;16.70;99.90;;;;;;4893674;29;20408;-74
2023/09/21 04:42:45;;;;;;;2.93;2.30;;;16.60;99.90;;;;;;4892685;29;20481;-73
2023/09/21 04:45:13;;;;;;;2.23;1.80;;;16.60;99.90;;;;;;4894849;29;20902;-72
2023/09/21 04:47:45;;;;;;;2.23;1.60;;;16.60;99.90;;;;;;4900924;29;20410;-74
2023/09/21 04:50:12;;;;;;;2.00;1.50;;;16.60;99.90;;;;;;4900280;29;20428;-72
2023/09/21 04:52:38;;;;;;;4.23;2.00;;;16.60;99.90;;;;;;4915004;29;20456;-73
2023/09/21 04:55:08;;;;;;;3.30;1.97;;;16.70;99.90;;;;;;4898293;29;20407;-73
2023/09/21 04:57:35;;;;;;;2.87;1.83;;;16.80;99.90;;;;;;4916344;29;20465;-72
2023/09/21 05:00:07;;;;;;;4.20;2.20;;;16.90;99.90;;;;;;4904819;29;20434;-72
2023/09/21 05:02:33;;;;;;;4.40;2.20;;;16.90;99.90;;;;;;4893780;29;20427;-73
2023/09/21 05:04:59;;;;;;;2.90;1.87;;;17.00;99.90;;;;;;4894335;29;20454;-74
2023/09/21 05:07:26;;;;;;;2.40;1.83;;;17.00;99.90;;;;;;4893799;29;20495;-74
2023/09/21 05:09:51;;;;;;;3.40;1.73;;;17.10;99.90;;;;;;4892351;29;20824;-73
2023/09/21 05:12:18;;;;;;;2.40;1.80;;;17.10;99.90;;;;;;4878086;29;20431;-74
2023/09/21 05:14:45;;;;;;;2.30;1.50;;;17.00;99.90;;;;;;4895762;29;20221;-75
2023/09/21 05:17:12;;;;;;;3.43;1.80;;;17.00;99.90;;;;;;4895597;29;20427;-73
2023/09/21 05:19:38;;;;;;;4.17;2.20;;;16.90;99.90;;;;;;4896191;29;20451;-73
2023/09/21 05:22:04;;;;;;;3.20;2.23;;;17.00;99.90;;;;;;4894628;29;20449;-74
2023/09/21 05:24:30;;;;;;;2.73;1.93;;;17.00;99.90;;;;;;4882283;29;20214;-76
2023/09/21 05:26:56;;;;;;;4.20;2.00;;;17.00;99.90;;;;;;4896718;29;20459;-75
2023/09/21 05:29:22;;;;;;;3.87;2.00;;;17.00;99.90;;;;;;4895700;29;20478;-73
2023/09/21 05:31:49;;;;;;;3.53;2.03;;;17.10;99.90;;;;;;4896975;29;20180;-73
2023/09/21 05:34:19;;;;;;;3.50;2.70;;;17.20;99.90;;;;;;4894414;29;20434;-74
2023/09/21 05:36:46;;;;;;;4.60;2.50;;;17.20;99.90;;;;;;4895188;29;20443;-74
2023/09/21 05:39:16;;;;;;;3.63;2.10;;;17.30;99.90;;;;;;4896518;29;20463;-75
2023/09/21 05:41:43;;;;;;;2.73;2.47;;;17.40;99.90;;;;;;4884551;29;20521;-75
2023/09/21 05:44:09;;;;;;;4.83;2.30;;;17.50;99.90;;;;;;4896040;29;20578;-73
2023/09/21 05:46:35;;;;;;;3.73;2.00;;;17.60;99.90;;;;;;4896536;29;20435;-76
2023/09/21 05:49:03;;;;;;;2.47;2.10;;;17.70;99.90;;;;;;4897250;29;20502;-76
2023/09/21 05:51:30;;;;;;;3.43;2.47;;;17.80;99.90;;;;;;4911573;29;20226;-74
2023/09/21 05:53:57;;;;;;;4.57;2.17;;;18.00;99.90;;;;;;4897421;29;20452;-76
2023/09/21 05:56:22;;;;;;;4.90;2.30;;;18.10;99.90;;;;;;4911810;29;20427;-73
2023/09/21 05:58:48;;;;;;;6.80;2.10;;;18.10;99.90;;;;;;4910032;29;20424;-74
2023/09/21 06:01:15;;;;;;;3.60;1.87;;;18.10;99.90;;;;;;4895843;29;20477;-74
2023/09/21 06:03:41;;;;;;;2.60;2.10;;;18.10;99.90;;;;;;4898471;29;20208;-76
2023/09/21 06:06:07;;;;;;;3.27;2.03;;;18.10;99.90;;;;;;4897280;29;20436;-75
2023/09/21 06:08:36;;;;;;;2.83;2.30;;;18.20;99.90;;;;;;4897173;29;20605;-75
2023/09/21 06:11:03;;;;;;;2.97;2.10;;;18.20;99.90;;;;;;4896008;29;20670;-75
2023/09/21 06:13:29;;;;;;;3.67;2.40;;;18.20;99.90;;;;;;4898556;29;20524;-76
2023/09/21 06:15:55;;;;;;;3.13;2.20;;;18.30;99.90;;;;;;4898019;29;20428;-75
2023/09/21 06:18:22;;;;;;;3.47;1.80;;;18.40;99.90;;;;;;4912095;29;20421;-75
2023/09/21 06:20:50;;;;;;;7.43;2.90;;;18.40;99.90;;;;;;4879649;29;20422;-76
2023/09/21 06:23:17;;;;;;;3.10;2.50;;;18.50;99.90;;;;;;4911737;29;20432;-75
2023/09/21 06:25:43;;;;;;;3.90;2.10;;;18.60;99.90;;;;;;4880214;29;20433;-76
2023/09/21 06:28:09;;;;;;;3.53;2.20;;;18.70;99.90;;;;;;4879848;29;20460;-75
2023/09/21 06:30:34;;;;;;;3.50;1.93;;;18.80;99.50;;;;;;4896553;29;20419;-76
2023/09/21 06:33:01;;;;;;;4.00;2.43;;;18.90;98.70;;;;;;4898538;29;20216;-76
2023/09/21 06:35:27;;;;;;;4.43;2.37;;;19.10;98.20;;;;;;4880609;29;20306;-75
2023/09/21 06:37:54;;;;;;;4.40;2.50;;;19.20;97.50;;;;;;4896918;29;20587;-77
2023/09/21 06:40:22;;;;;;;3.27;2.30;;;19.30;96.40;;;;;;4882427;29;20183;-77
2023/09/21 06:42:48;;;;;;;3.53;2.40;;;19.50;95.70;;;;;;4913468;29;20447;-76
2023/09/21 06:45:13;;;;;;;3.70;2.37;;;19.60;95.40;;;;;;4878347;29;20433;-74
2023/09/21 06:47:39;;;;;;;4.10;2.40;;;19.70;94.50;;;;;;4910614;29;20192;-74
2023/09/21 06:50:10;;;;;;;4.70;2.10;;;19.80;93.90;;;;;;4896825;29;20545;-76
2023/09/21 06:52:45;;;;;;;2.80;1.90;;;19.90;93.50;;;;;;4896428;29;20428;-77
2023/09/21 06:55:14;;;;;;;4.20;2.60;;;20.00;92.80;;;;;;4894605;29;20461;-76
2023/09/21 06:57:40;;;;;;;2.57;2.20;;;20.10;92.70;;;;;;4912638;29;20533;-75
2023/09/21 07:00:09;;;;;;;3.00;2.33;;;20.10;92.20;;;;;;4897828;29;20508;-74
2023/09/21 07:02:36;;;;;;;4.40;2.57;;;20.20;92.20;;;;;;4899008;29;20187;-76
2023/09/21 07:05:02;;;;;;;4.67;2.50;;;20.20;91.80;;;;;;4897100;29;20485;-74
2023/09/21 07:07:29;;;;;;;2.20;1.93;;;20.20;91.50;;;;;;4895789;29;20440;-74
2023/09/21 07:09:55;;;;;;;4.57;2.70;;;20.30;91.40;;;;;;4899274;29;20492;-75
2023/09/21 07:12:24;;;;;;;6.67;2.10;;;20.40;91.00;;;;;;4888801;29;20445;-76
2023/09/21 07:14:50;;;;;;;3.17;2.80;;;20.40;91.00;;;;;;4893917;29;20200;-78
2023/09/21 07:17:16;;;;;;;3.27;2.50;;;20.40;90.90;;;;;;4895192;29;20504;-75
2023/09/21 07:19:45;;;;;;;3.90;2.10;;;20.50;90.90;;;;;;4914404;29;20474;-76
2023/09/21 07:22:12;;;;;;;6.00;2.73;;;20.50;90.70;;;;;;4884383;29;20432;-77
2023/09/21 07:24:39;;;;;;;5.13;2.27;;;20.60;90.30;;;;;;4882707;29;20484;-74
2023/09/21 07:27:06;;;;;;;5.50;2.10;;;20.60;90.20;;;;;;4925993;29;20219;-77
2023/09/21 07:29:33;;;;;;;4.20;2.60;;;20.60;90.20;;;;;;4918012;29;20447;-77
2023/09/21 07:32:00;;;;;;;4.20;2.03;;;20.60;90.10;;;;;;4902143;29;20412;-77
2023/09/21 07:34:26;;;;;;;2.90;2.33;;;20.60;90.10;;;;;;4894070;29;20475;-77
2023/09/21 07:36:52;;;;;;;8.90;6.50;;;20.60;90.40;;;;;;4898652;29;20727;-77
2023/09/21 07:39:18;;;;;;;4.27;3.87;;;20.70;90.30;;;;;;4881997;29;20568;-76
2023/09/21 07:41:46;;;;;;;5.80;3.70;;;20.80;89.80;;;;;;4897641;29;20299;-77
2023/09/21 07:44:19;;;;;;;7.73;3.30;;;20.90;89.50;;;;;;4905380;29;20517;-78
2023/09/21 07:46:53;;;;;;;3.67;2.73;;;21.00;89.60;;;;;;4900270;29;20413;-78
2023/09/21 07:49:19;;;;;;;4.27;2.60;;;21.10;89.60;;;;;;4884673;29;20509;-76
2023/09/21 07:51:45;;;;;;;5.30;3.20;;;21.10;89.30;;;;;;4882263;29;20488;-77
2023/09/21 07:54:14;;;;;;;3.00;2.23;;;21.30;89.00;;;;;;4896228;29;20208;-76
2023/09/21 07:56:42;;;;;;;3.40;2.63;;;21.30;87.90;;;;;;4897927;29;20427;-76
2023/09/21 07:59:10;;;;;;;3.73;2.80;;;21.30;87.40;;;;;;4902528;29;20215;-76
2023/09/21 08:01:37;;;;;;;5.13;2.37;;;21.30;87.60;;;;;;4915363;29;20417;-76
2023/09/21 08:04:09;;;;;;;4.20;2.50;;;21.30;88.50;;;;;;4903054;29;20448;-77
2023/09/21 08:06:35;;;;;;;3.00;2.23;;;21.30;88.50;;;;;;4919432;29;20437;-78
2023/09/21 08:09:01;;;;;;;4.43;2.90;;;21.30;88.80;;;;;;4901349;29;20486;-77
2023/09/21 08:11:27;;;;;;;4.70;3.60;;;21.30;88.80;;;;;;4903679;29;20416;-76
2023/09/21 08:13:55;;;;;;;2.90;2.40;;;21.40;88.80;;;;;;4915994;29;20207;-77
2023/09/21 08:16:21;;;;;;;3.83;2.20;;;21.40;88.20;;;;;;4867409;29;20427;-76
2023/09/21 08:18:49;;;;;;;3.60;2.77;;;21.50;87.80;;;;;;4901036;29;20444;-76
2023/09/21 08:21:16;;;;;;;6.93;2.90;;;21.50;87.50;;;;;;4903055;29;20421;-76
2023/09/21 08:23:57;;;;;;;4.40;2.17;;;21.50;87.40;;;;;;4930758;23;20497;-74
2023/09/21 08:26:23;;;;;;;7.23;2.67;;;21.50;87.70;;;;;;4942162;29;20434;-76
2023/09/21 08:28:52;;;;;;;6.03;3.07;;;21.50;87.60;;;;;;4927366;29;20457;-77
2023/09/21 08:31:19;;;;;;;4.10;3.13;;;21.50;88.30;;;;;;5175355;23;20501;-76
2023/09/21 08:33:49;;;;;;;6.27;3.27;;;21.50;88.30;;;;;;4890635;29;20439;-77
2023/09/21 08:36:16;;;;;;;4.13;2.70;;;21.50;89.40;;;;;;4935766;29;20438;-78
2023/09/21 08:38:45;;;;;;;6.57;3.93;;;21.50;88.70;;;;;;4905471;29;20436;-76
2023/09/21 08:44:04;;;;;;;8.77;3.43;;;21.70;87.70;;;;;;4921241;23;20499;-75
2023/09/21 08:46:32;;;;;;;7.53;3.30;;;21.70;87.40;;;;;;4906376;29;20443;-75
2023/09/21 08:49:01;;;;;;;4.20;2.73;;;21.70;87.20;;;;;;4905432;29;20455;-78
2023/09/21 08:51:31;;;;;;;5.33;2.37;;;21.70;87.40;;;;;;4937678;29;20431;-76
2023/09/21 08:54:05;;;;;;;4.10;2.70;;;21.70;87.50;;;;;;4923887;29;20532;-77
2023/09/21 08:56:33;;;;;;;4.13;2.60;;;21.90;87.50;;;;;;4935842;29;20435;-77
2023/09/21 08:59:04;;;;;;;4.90;2.80;;;22.00;86.80;;;;;;4905041;29;20415;-77
2023/09/21 09:01:30;;;;;;;7.00;3.23;;;22.30;86.00;;;;;;4919438;29;20487;-77
2023/09/21 09:03:58;;;;;;;3.40;2.37;;;22.60;84.70;;;;;;4918873;29;20439;-76
2023/09/21 09:06:29;;;;;;;5.33;2.80;;;22.80;82.60;;;;;;4888949;29;20450;-77
2023/09/21 09:08:58;;;;;;;4.57;2.63;;;23.00;81.90;;;;;;4885643;29;20503;-77
2023/09/21 09:11:44;;;;;;;10.23;2.50;;;23.10;79.90;;;;;;4895430;29;20440;-77
2023/09/21 09:14:16;;;;;;;6.27;2.87;;;23.20;79.00;;;;;;4883948;29;20487;-76
2023/09/21 09:16:44;;;;;;;3.50;2.50;;;23.30;79.30;;;;;;4886087;29;20470;-77
2023/09/21 09:19:12;;;;;;;4.17;2.70;;;23.40;78.40;;;;;;4920358;29;20419;-77
2023/09/21 09:21:47;;;;;;;3.90;2.70;;;23.40;78.00;;;;;;4903185;29;20456;-77
2023/09/21 09:24:34;;;;;;;2.73;2.37;;;23.50;77.90;;;;;;5355971;23;20494;-77
2023/09/21 09:27:08;;;;;;;14.30;6.60;;;23.60;77.30;;;;;;4921777;29;20483;-78
2023/09/21 09:29:47;;;;;;;8.63;3.50;;;23.70;77.00;;;;;;4854474;29;20485;-79
2023/09/21 09:32:18;;;;;;;5.07;3.10;;;23.80;76.30;;;;;;4905060;29;20427;-76
2023/09/21 09:34:46;;;;;;;3.70;2.90;;;23.90;76.00;;;;;;4889155;29;20487;-78
2023/09/21 09:37:28;;;;;;;3.50;3.00;;;24.10;75.40;;;;;;4922513;29;20430;-79
2023/09/21 09:39:56;;;;;;;3.70;2.70;;;24.10;74.60;;;;;;4888177;29;20417;-78
2023/09/21 09:42:24;;;;;;;5.40;2.67;;;24.10;74.20;;;;;;4902323;29;20433;-78
2023/09/21 09:45:06;;;;;;;3.50;2.40;;;24.20;73.60;;;;;;5627911;23;21418;-78
2023/09/21 09:47:37;;;;;;;2.63;2.03;;;24.30;73.60;;;;;;4919969;29;20436;-78
2023/09/21 09:50:09;;;;;;;7.53;4.10;;;24.40;73.20;;;;;;4922466;29;20431;-78
2023/09/21 09:52:43;;;;;;;5.53;3.07;;;24.40;71.80;;;;;;4906185;29;20487;-78
2023/09/21 09:55:13;;;;;;;4.07;2.60;;;24.40;72.30;;;;;;4920156;29;20431;-78
2023/09/21 09:57:41;;;;;;;4.13;2.70;;;24.40;72.30;;;;;;4904659;29;20447;-77
2023/09/21 10:00:15;;;;;;;4.10;3.27;;;24.50;72.00;;;;;;4911205;29;20498;-78
2023/09/21 10:02:47;;;;;;;3.73;3.00;;;24.60;71.30;;;;;;4925543;29;20482;-77
2023/09/21 10:05:26;;;;;;;3.53;2.50;;;24.60;71.00;;;;;;4902270;29;20447;-77
2023/09/21 10:08:01;;;;;;;3.60;2.40;;;24.60;70.10;;;;;;4920801;29;20445;-78
2023/09/21 10:10:36;;;;;;;4.70;2.83;;;24.60;70.00;;;;;;4919299;29;20542;-78
2023/09/21 10:13:03;;;;;;;2.90;1.93;;;24.50;70.20;;;;;;4918141;29;20499;-77
2023/09/21 10:15:33;;;;;;;5.43;2.90;;;24.50;70.40;;;;;;4888508;29;20459;-77
2023/09/21 10:18:04;;;;;;;3.03;2.20;;;24.50;69.70;;;;;;4869873;29;20440;-77
2023/09/21 10:20:36;;;;;;;2.37;2.10;;;24.60;69.90;;;;;;4869603;29;20440;-78
2023/09/21 10:23:15;;;;;;;4.50;2.70;;;24.60;69.70;;;;;;4885518;29;20591;-78
2023/09/21 10:25:45;;;;;;;3.53;2.57;;;24.60;69.10;;;;;;4887819;29;20431;-77
2023/09/21 10:28:29;;;;;;;2.60;2.17;;;24.70;69.40;;;;;;4905734;29;20535;-77
2023/09/21 10:31:29;;;;;;;2.40;2.20;;;24.70;68.60;;;;;;4905268;29;20430;-78
2023/09/21 10:36:51;;;;;;;3.20;2.50;;;24.70;68.30;;;;;;5352706;23;20579;-78
2023/09/21 10:39:24;;;;;;;3.50;2.57;;;24.80;67.80;;;;;;4939037;29;20426;-78
2023/09/21 10:42:15;;;;;;;3.23;2.40;;;24.80;67.70;;;;;;4908484;29;20454;-77
2023/09/21 10:44:55;;;;;;;3.90;2.80;;;24.80;67.50;;;;;;4908775;29;20455;-77
2023/09/21 10:47:54;;;;;;;3.20;2.47;;;24.90;66.70;;;;;;4920366;29;20407;-77
2023/09/21 10:50:24;;;;;;;3.40;3.10;;;24.80;66.90;;;;;;4883266;29;20453;-77
2023/09/21 10:58:36;;;;;;;3.30;2.77;;;24.80;67.30;;;;;;5332532;23;20510;-78
2023/09/21 11:01:05;;;;;;;4.07;3.33;;;25.00;66.90;;;;;;4921770;29;20423;-78
2023/09/21 11:06:25;;;;;;;2.73;2.53;;;25.20;65.60;;;;;;5286523;23;20483;-77
2023/09/21 11:08:52;;;;;;;5.27;3.03;;;25.30;64.90;;;;;;4919917;29;20984;-77
2023/09/21 11:11:25;;;;;;;3.20;2.63;;;25.30;63.90;;;;;;4886645;29;20476;-78
2023/09/21 11:13:56;;;;;;;3.20;2.37;;;25.30;64.30;;;;;;4904909;29;20433;-77
2023/09/21 11:28:36;;;;;;;3.10;2.53;;;25.20;64.70;;;;;;3892979;23;20479;-77
2023/09/21 11:31:05;;;;;;;5.43;3.10;;;25.40;64.30;;;;;;4890111;29;20500;-77
2023/09/21 11:33:35;;;;;;;3.33;2.73;;;25.50;64.10;;;;;;4904476;29;20483;-77
2023/09/21 11:36:04;;;;;;;2.80;2.13;;;25.40;63.10;;;;;;4889673;29;20416;-78
2023/09/21 11:38:34;;;;;;;5.97;2.90;;;25.30;63.50;;;;;;4933681;29;20463;-78
2023/09/21 11:43:50;;;;;;;4.33;3.00;;;25.10;64.30;;;;;;4976207;23;20492;-78
2023/09/21 11:46:19;;;;;;;3.10;2.30;;;25.00;64.60;;;;;;4930722;29;20425;-79
2023/09/21 11:48:50;;;;;;;5.93;2.90;;;24.90;65.10;;;;;;4962855;29;20453;-78
2023/09/21 11:51:26;;;;;;;3.73;2.40;;;25.00;64.80;;;;;;4962064;29;20409;-78
2023/09/21 11:54:23;;;;;;;3.70;2.00;;;25.00;64.80;;;;;;5215345;23;20509;-78
2023/09/21 11:57:11;;;;;;;3.27;2.67;;;25.10;64.60;;;;;;4923208;29;20427;-78
2023/09/21 11:59:42;;;;;;;3.37;2.33;;;25.10;64.00;;;;;;4907767;29;20435;-77
2023/09/21 12:02:16;;;;;;;5.30;3.30;;;25.10;64.20;;;;;;4922060;29;20431;-78
2023/09/21 12:04:52;;;;;;;4.13;2.90;;;25.10;64.20;;;;;;4890971;29;20448;-78
2023/09/21 12:07:20;;;;;;;2.30;1.80;;;25.10;64.00;;;;;;4888417;29;20424;-77
2023/09/21 12:10:07;;;;;;;2.13;1.93;;;25.10;64.00;;;;;;4906340;29;20496;-77
2023/09/21 12:40:44;;;;;;;2.90;1.90;;;24.40;65.70;;;;;;5093693;23;20466;-78
2023/09/21 12:43:15;;;;;;;3.40;2.40;;;24.40;65.60;;;;;;4938167;29;20488;-77
2023/09/21 12:45:49;;;;;;;3.13;2.83;;;24.40;65.70;;;;;;4921433;29;20446;-77
2023/09/21 12:48:15;;;;;;;3.20;2.80;;;24.40;66.10;;;;;;4889041;29;20538;-77
2023/09/21 12:53:32;;;;;;;3.10;2.33;;;24.20;67.00;;;;;;5251406;23;20473;-78
2023/09/21 12:56:00;;;;;;;3.93;2.40;;;23.90;68.50;;;;;;4924723;29;20434;-77
2023/09/21 12:59:04;;;;;;;4.20;2.87;;;23.70;69.70;;;;;;4927110;29;20410;-78
2023/09/21 13:01:44;;;;;;;6.60;3.00;;;23.60;71.00;;;;;;4925447;29;20410;-77
2023/09/21 13:04:11;;;;;;;4.47;2.63;;;23.40;72.40;;;;;;4914169;29;20460;-78
2023/09/21 13:06:42;;;;;;;3.60;2.53;;;23.20;73.80;;;;;;4902411;29;20404;-77
2023/09/21 13:09:11;;;;;;;3.93;2.50;;;23.00;75.40;;;;;;4920054;29;20540;-77
2023/09/21 13:11:57;;;;;;;5.50;2.50;;;23.10;75.70;;;;;;4891302;29;20868;-77
2023/09/21 13:29:55;;;;;;;5.43;3.13;;;23.30;79.30;;;;;;4734847;23;20486;-77
2023/09/21 13:35:40;;;;;;;6.33;2.90;;;23.50;79.50;;;;;;5189511;23;20462;-77
2023/09/21 13:47:58;;;;;;;3.63;2.57;;;23.80;79.40;;;;;;4488455;23;20486;-78
2023/09/21 13:50:29;;;;;;;3.37;2.20;;;23.70;79.30;;;;;;4930928;29;20421;-78
2023/09/21 13:52:55;;;;;;;4.23;2.80;;;23.70;79.70;;;;;;4957970;28;20437;-77
2023/09/21 13:55:24;;;;;;;3.30;2.53;;;23.60;79.80;;;;;;4981490;28;20440;-78
2023/09/21 13:57:52;;;;;;;4.47;3.10;;;23.60;80.10;;;;;;4943208;29;20424;-77
2023/09/21 14:00:21;;;;;;;4.70;2.90;;;23.50;80.70;;;;;;4958231;28;20414;-77
2023/09/21 14:05:26;;;;;;;4.00;2.97;;;23.40;82.10;;;;;;4901290;29;20457;-77
2023/09/21 14:08:09;;;;;;;2.67;2.30;;;23.20;82.60;;;;;;4903259;29;20428;-77
2023/09/21 14:10:50;;;;;;;2.43;2.10;;;23.20;83.40;;;;;;4918392;29;20460;-78
2023/09/21 14:13:17;;;;;;;3.47;2.63;;;23.10;83.90;;;;;;4906548;29;20452;-78
2023/09/21 14:15:56;;;;;;;4.23;3.30;;;23.10;85.20;;;;;;5024138;23;20434;-77
2023/09/21 14:18:23;;;;;;;3.17;2.73;;;23.00;85.90;;;;;;5054724;23;20230;-77
2023/09/21 14:21:20;;;;;;;3.30;2.57;;;22.90;86.80;;;;;;4942048;29;20444;-78
2023/09/21 14:23:50;;;;;;;6.40;3.40;;;22.80;87.90;;;;;;4950148;28;20462;-77
2023/09/21 14:29:19;;;;;;;3.17;2.30;;;22.70;90.10;;;;;;5075022;23;20485;-78
2023/09/21 14:35:10;;;;;;;2.73;1.80;;;22.40;92.20;;;;;;5320274;23;20468;-77
2023/09/21 14:37:39;;;;;;;4.37;2.50;;;22.30;94.00;;;;;;4921408;29;20417;-78
2023/09/21 14:40:05;;;;;;;2.43;1.90;;;22.10;96.70;;;;;;4922253;29;20498;-75